Time;durP1;ratioP1;P1;durP2;ratioP2;P2;SDS_P1;SDS_P2;PMS_P1;PMS_P2;Temp;Humidity;BMP_temperature;BMP_pressure;BME280_temperature;BME280_humidity;BME280_pressure;Samples;Min_cycle;Max_cycle;Signal;HPM_P1;HPM_P2
2022/03/18 00:00:42;;;;;;;1.73;1.50;;;20.40;45.90;;;;;;5082222;27;88506;-70
2022/03/18 00:03:10;;;;;;;3.27;1.37;;;20.40;45.80;;;;;;5083699;27;90533;-70
2022/03/18 00:05:38;;;;;;;3.83;2.00;;;20.40;45.80;;;;;;5086808;27;92498;-70
2022/03/18 00:08:06;;;;;;;2.30;1.27;;;20.30;45.70;;;;;;5103749;27;88606;-70
2022/03/18 00:10:34;;;;;;;2.03;1.40;;;20.30;45.70;;;;;;5103728;27;88714;-70
2022/03/18 00:13:02;;;;;;;3.47;1.63;;;20.30;45.60;;;;;;5103661;27;91834;-69
2022/03/18 00:15:30;;;;;;;2.20;1.80;;;20.30;45.60;;;;;;5096685;27;92238;-72
2022/03/18 00:17:59;;;;;;;1.97;1.70;;;20.30;45.60;;;;;;5082825;27;88386;-72
2022/03/18 00:20:27;;;;;;;3.40;1.70;;;20.30;45.60;;;;;;5082829;27;88324;-71
2022/03/18 00:22:55;;;;;;;2.07;1.63;;;20.30;45.60;;;;;;5083311;27;90592;-71
2022/03/18 00:25:23;;;;;;;4.00;1.73;;;20.30;45.50;;;;;;5082657;27;89422;-70
2022/03/18 00:27:51;;;;;;;1.63;1.40;;;20.30;45.50;;;;;;5082647;27;88759;-71
2022/03/18 00:30:20;;;;;;;3.67;1.57;;;20.30;45.50;;;;;;5094175;27;88559;-71
2022/03/18 00:32:49;;;;;;;2.37;1.60;;;20.30;45.50;;;;;;5093749;27;90633;-72
2022/03/18 00:35:36;;;;;;;2.67;1.50;;;20.30;45.50;;;;;;5084184;27;89343;-72
2022/03/18 00:38:04;;;;;;;3.17;1.60;;;20.20;45.50;;;;;;5083173;27;88259;-72
2022/03/18 00:40:32;;;;;;;2.37;1.47;;;20.20;45.40;;;;;;5082986;27;88392;-72
2022/03/18 00:43:03;;;;;;;1.83;1.30;;;20.20;45.50;;;;;;5082962;27;89608;-72
2022/03/18 00:45:32;;;;;;;2.40;1.83;;;20.20;45.40;;;;;;5082181;27;88946;-72
2022/03/18 00:53:35;;;;;;;2.57;1.83;;;20.20;45.40;;;;;;5082005;27;91065;-73
2022/03/18 00:56:03;;;;;;;2.63;1.70;;;20.20;45.30;;;;;;5096712;27;92261;-72
2022/03/18 00:58:31;;;;;;;2.83;1.47;;;20.10;45.30;;;;;;5104017;27;88318;-73
2022/03/18 01:00:59;;;;;;;1.57;1.40;;;20.10;45.30;;;;;;5091133;27;88426;-71
2022/03/18 01:03:27;;;;;;;2.20;1.40;;;20.10;45.30;;;;;;5081409;27;89456;-71
2022/03/18 01:05:57;;;;;;;3.87;1.37;;;20.10;45.30;;;;;;5093744;27;89757;-71
2022/03/18 01:08:25;;;;;;;1.67;1.30;;;20.10;45.30;;;;;;5103318;27;89025;-71
2022/03/18 01:10:53;;;;;;;2.40;1.63;;;20.10;45.30;;;;;;5103391;27;88761;-71
2022/03/18 01:13:21;;;;;;;2.10;1.30;;;20.10;45.30;;;;;;5101925;27;91001;-71
2022/03/18 01:15:49;;;;;;;2.60;1.30;;;20.10;45.30;;;;;;5099897;27;89017;-71
2022/03/18 01:18:17;;;;;;;1.40;1.27;;;20.10;45.30;;;;;;5103408;27;88841;-71
2022/03/18 01:20:48;;;;;;;1.70;1.07;;;20.10;45.20;;;;;;5087936;27;88504;-71
2022/03/18 01:23:17;;;;;;;2.83;1.33;;;20.10;45.20;;;;;;5081619;27;93991;-71
2022/03/18 01:25:45;;;;;;;2.90;0.80;;;20.10;45.30;;;;;;5093522;27;90771;-71
2022/03/18 01:28:13;;;;;;;1.47;1.33;;;20.10;45.30;;;;;;5103037;27;88350;-71
2022/03/18 01:30:42;;;;;;;2.50;1.40;;;20.10;45.30;;;;;;5101832;27;88543;-71
2022/03/18 01:33:10;;;;;;;1.10;1.00;;;20.10;45.30;;;;;;5102037;27;91772;-71
2022/03/18 01:35:38;;;;;;;1.47;1.10;;;20.10;45.30;;;;;;5091423;27;90032;-71
2022/03/18 01:38:06;;;;;;;1.27;1.07;;;20.00;45.20;;;;;;5064345;27;88559;-71
2022/03/18 01:40:35;;;;;;;2.57;1.20;;;20.10;45.30;;;;;;5069057;27;88509;-72
2022/03/18 01:43:06;;;;;;;1.37;1.10;;;20.00;45.20;;;;;;5081541;27;91047;-71
2022/03/18 01:45:34;;;;;;;2.63;1.10;;;20.00;45.20;;;;;;5089316;27;90095;-71
2022/03/18 01:48:02;;;;;;;5.10;1.43;;;20.10;45.30;;;;;;5102639;27;88546;-71
2022/03/18 01:50:31;;;;;;;2.40;1.60;;;20.00;45.20;;;;;;5102575;27;88053;-71
2022/03/18 01:52:59;;;;;;;1.67;1.20;;;20.00;45.20;;;;;;5081932;27;90763;-71
2022/03/18 01:55:28;;;;;;;3.13;1.63;;;20.00;45.20;;;;;;5089110;27;88754;-71
2022/03/18 01:57:57;;;;;;;2.13;0.90;;;20.00;45.10;;;;;;5103194;27;88418;-71
2022/03/18 02:00:26;;;;;;;1.83;1.00;;;20.00;45.20;;;;;;5095565;27;88531;-70
2022/03/18 02:02:54;;;;;;;1.43;1.17;;;20.00;45.10;;;;;;5077701;27;90536;-71
2022/03/18 02:05:22;;;;;;;1.90;1.10;;;20.00;45.10;;;;;;5090255;27;88573;-71
2022/03/18 02:07:51;;;;;;;1.23;1.10;;;19.90;45.10;;;;;;5103080;27;88448;-71
2022/03/18 02:10:19;;;;;;;2.30;1.70;;;19.90;45.10;;;;;;5081791;27;88686;-71
2022/03/18 02:12:48;;;;;;;1.97;1.27;;;19.90;45.10;;;;;;5081344;27;89670;-71
2022/03/18 02:15:22;;;;;;;1.80;1.20;;;19.90;45.10;;;;;;5088181;27;89329;-72
2022/03/18 02:17:50;;;;;;;1.20;1.10;;;19.90;45.10;;;;;;5065501;27;88490;-70
2022/03/18 02:20:18;;;;;;;1.70;1.47;;;19.90;45.10;;;;;;5061194;27;88400;-71
2022/03/18 02:22:48;;;;;;;1.80;1.10;;;19.90;45.10;;;;;;5063619;27;90654;-71
2022/03/18 02:25:16;;;;;;;1.60;1.10;;;19.90;45.10;;;;;;5088108;27;93218;-71
2022/03/18 02:27:54;;;;;;;1.53;1.40;;;19.90;45.10;;;;;;5101554;27;88579;-72
2022/03/18 02:30:22;;;;;;;2.60;1.10;;;19.90;45.10;;;;;;5069466;27;88456;-71
2022/03/18 02:32:51;;;;;;;3.60;1.17;;;19.90;45.10;;;;;;5081743;27;90782;-71
2022/03/18 02:35:19;;;;;;;1.23;1.10;;;19.90;45.10;;;;;;5092165;27;91235;-71
2022/03/18 02:37:49;;;;;;;1.77;1.07;;;19.90;45.10;;;;;;5081145;27;88508;-71
2022/03/18 02:40:17;;;;;;;1.23;0.83;;;19.80;45.00;;;;;;5082103;27;88466;-71
2022/03/18 02:42:45;;;;;;;1.90;1.00;;;19.80;45.00;;;;;;5076543;27;93157;-74
2022/03/18 02:45:13;;;;;;;1.00;0.90;;;19.80;45.00;;;;;;5075329;27;90032;-72
2022/03/18 02:47:42;;;;;;;3.30;0.97;;;19.80;45.00;;;;;;5101876;27;88406;-72
2022/03/18 02:50:11;;;;;;;2.30;1.10;;;19.80;45.00;;;;;;5084242;27;88600;-72
2022/03/18 02:52:39;;;;;;;0.97;0.80;;;19.80;45.00;;;;;;5081429;27;91489;-72
2022/03/18 02:55:09;;;;;;;2.67;1.10;;;19.80;45.00;;;;;;5086982;27;89185;-73
2022/03/18 02:57:38;;;;;;;3.17;1.30;;;19.80;45.00;;;;;;5083023;27;88313;-73
2022/03/18 03:00:07;;;;;;;1.77;1.20;;;19.80;45.00;;;;;;5082017;27;88453;-73
2022/03/18 03:02:35;;;;;;;1.30;0.80;;;19.80;45.00;;;;;;5080804;27;91820;-72
2022/03/18 03:08:01;;;;;;;1.27;0.90;;;19.80;45.00;;;;;;5101222;27;88342;-72
2022/03/18 03:10:37;;;;;;;1.67;1.40;;;19.80;44.90;;;;;;5100302;27;88509;-73
2022/03/18 03:13:10;;;;;;;1.77;1.10;;;19.70;44.80;;;;;;5094483;27;89549;-72
2022/03/18 03:15:38;;;;;;;1.87;0.70;;;19.70;44.80;;;;;;5085658;27;90569;-72
2022/03/18 03:18:07;;;;;;;1.80;1.10;;;19.70;45.50;;;;;;5100966;27;88426;-73
2022/03/18 03:20:35;;;;;;;1.03;0.90;;;19.70;44.80;;;;;;5098709;27;88561;-72
2022/03/18 03:23:03;;;;;;;1.10;1.00;;;19.70;44.80;;;;;;5082516;27;93966;-73
2022/03/18 03:25:31;;;;;;;1.23;1.00;;;19.70;44.80;;;;;;5081239;27;90107;-73
2022/03/18 03:28:00;;;;;;;1.53;1.20;;;19.70;44.80;;;;;;5094023;27;88637;-73
2022/03/18 03:30:28;;;;;;;1.00;0.90;;;19.70;44.80;;;;;;5083489;27;88463;-73
2022/03/18 03:32:56;;;;;;;1.10;1.00;;;19.70;44.80;;;;;;5087340;27;90250;-73
2022/03/18 03:35:24;;;;;;;2.10;1.00;;;19.70;44.80;;;;;;5083339;27;91967;-72
2022/03/18 03:37:52;;;;;;;1.13;1.03;;;19.60;44.80;;;;;;5083949;27;88421;-73
2022/03/18 03:40:20;;;;;;;1.43;0.87;;;19.70;44.80;;;;;;5084043;27;88555;-73
2022/03/18 03:42:48;;;;;;;0.80;0.77;;;19.60;44.80;;;;;;5083069;27;89627;-73
2022/03/18 03:45:18;;;;;;;1.17;0.70;;;19.60;44.80;;;;;;5086813;27;88512;-73
2022/03/18 03:47:46;;;;;;;1.30;0.93;;;19.60;44.80;;;;;;5087284;27;88517;-73
2022/03/18 03:50:14;;;;;;;2.30;0.90;;;19.60;44.80;;;;;;5084308;27;88532;-74
2022/03/18 03:52:42;;;;;;;1.37;1.07;;;19.60;44.80;;;;;;5083575;27;93742;-73
2022/03/18 03:55:11;;;;;;;1.30;0.93;;;19.60;44.80;;;;;;5083242;27;90021;-73
2022/03/18 03:57:39;;;;;;;1.80;1.03;;;19.60;44.70;;;;;;5084222;27;89366;-72
2022/03/18 04:00:08;;;;;;;2.00;1.00;;;19.60;44.80;;;;;;5083536;27;88522;-69
2022/03/18 04:02:37;;;;;;;1.20;1.10;;;19.60;44.80;;;;;;5082410;27;90707;-69
2022/03/18 04:05:08;;;;;;;1.80;1.30;;;19.50;44.60;;;;;;5083867;27;92367;-69
2022/03/18 04:07:36;;;;;;;0.90;0.90;;;19.50;44.70;;;;;;5083981;27;88420;-69
2022/03/18 04:10:04;;;;;;;0.63;0.63;;;19.50;44.60;;;;;;5083674;27;88649;-68
2022/03/18 04:12:33;;;;;;;1.40;1.17;;;19.50;44.70;;;;;;5083718;27;90604;-69
2022/03/18 04:15:01;;;;;;;1.33;1.20;;;19.50;44.70;;;;;;5083410;27;89548;-68
2022/03/18 04:17:38;;;;;;;0.90;0.87;;;19.50;44.70;;;;;;5077763;27;88555;-68
2022/03/18 04:20:08;;;;;;;1.33;1.00;;;19.50;44.70;;;;;;5062163;27;88479;-68
2022/03/18 04:22:37;;;;;;;1.17;0.93;;;19.50;44.60;;;;;;5063209;27;90774;-68
2022/03/18 04:25:05;;;;;;;1.00;0.90;;;19.50;44.60;;;;;;5069434;27;91913;-70
2022/03/18 04:27:33;;;;;;;0.77;0.77;;;19.50;44.60;;;;;;5094851;27;88438;-70
2022/03/18 04:30:01;;;;;;;1.13;0.87;;;19.50;44.60;;;;;;5083474;27;88460;-69
2022/03/18 04:32:29;;;;;;;1.70;0.57;;;19.50;44.60;;;;;;5083453;27;91033;-68
2022/03/18 04:34:59;;;;;;;1.87;0.80;;;19.50;44.60;;;;;;5069078;27;89435;-69
2022/03/18 04:37:27;;;;;;;1.20;0.80;;;19.50;44.60;;;;;;5091657;27;88620;-67
2022/03/18 04:39:56;;;;;;;0.97;0.83;;;19.50;44.60;;;;;;5082793;27;88515;-68
2022/03/18 04:42:23;;;;;;;1.83;0.77;;;19.50;44.70;;;;;;5082996;27;90706;-67
2022/03/18 04:44:51;;;;;;;1.60;1.20;;;19.50;44.70;;;;;;5079888;27;88762;-66
2022/03/18 04:47:19;;;;;;;1.27;0.87;;;19.50;44.80;;;;;;5078743;27;89509;-66
2022/03/18 04:49:48;;;;;;;0.80;0.80;;;19.50;44.80;;;;;;5100168;27;88458;-66
2022/03/18 04:52:17;;;;;;;2.10;1.30;;;19.50;44.90;;;;;;5103703;27;89346;-67
2022/03/18 04:54:45;;;;;;;1.13;0.90;;;19.50;44.90;;;;;;5103391;27;90111;-66
2022/03/18 04:57:16;;;;;;;1.90;1.00;;;19.50;45.00;;;;;;5087687;27;88583;-66
2022/03/18 04:59:44;;;;;;;9.27;1.50;;;19.50;45.10;;;;;;5102142;27;88472;-66
2022/03/18 05:02:14;;;;;;;1.70;1.07;;;19.50;45.10;;;;;;5081106;27;90375;-66
2022/03/18 05:04:44;;;;;;;1.30;0.70;;;19.50;45.20;;;;;;5079485;27;89773;-66
2022/03/18 05:07:12;;;;;;;0.90;0.70;;;19.60;45.40;;;;;;5083389;27;88614;-66
2022/03/18 05:09:42;;;;;;;1.17;1.07;;;19.60;45.40;;;;;;5084031;27;88520;-66
2022/03/18 05:12:11;;;;;;;1.67;0.90;;;19.70;45.50;;;;;;5081783;27;90583;-64
2022/03/18 05:14:39;;;;;;;1.37;0.97;;;19.90;45.60;;;;;;5085671;27;88443;-67
2022/03/18 05:17:08;;;;;;;0.83;0.83;;;20.00;45.70;;;;;;5096423;27;88416;-67
2022/03/18 05:19:37;;;;;;;1.93;0.57;;;20.20;45.70;;;;;;5102165;27;89303;-67
2022/03/18 05:22:06;;;;;;;2.73;1.27;;;20.50;45.70;;;;;;5103582;27;90167;-66
2022/03/18 05:24:34;;;;;;;1.47;0.80;;;20.60;45.60;;;;;;5102376;27;89495;-67
2022/03/18 05:27:03;;;;;;;1.10;0.83;;;20.90;45.60;;;;;;5091747;27;88381;-67
2022/03/18 05:29:31;;;;;;;0.60;0.60;;;21.10;45.50;;;;;;5097446;27;88536;-67
2022/03/18 05:31:59;;;;;;;1.97;0.67;;;21.30;45.50;;;;;;5072194;27;90580;-67
2022/03/18 05:34:27;;;;;;;1.50;0.60;;;21.50;45.40;;;;;;5078133;27;88906;-67
2022/03/18 05:36:56;;;;;;;1.20;1.10;;;21.60;45.30;;;;;;5082475;27;88434;-66
2022/03/18 05:39:23;;;;;;;2.67;1.10;;;21.70;45.30;;;;;;5094531;27;88714;-66
2022/03/18 05:41:51;;;;;;;0.63;0.60;;;21.80;45.30;;;;;;5089297;27;90605;-67
2022/03/18 05:44:21;;;;;;;1.67;0.80;;;21.80;45.20;;;;;;5072712;27;89995;-66
2022/03/18 05:46:49;;;;;;;0.83;0.67;;;21.80;45.20;;;;;;5082992;27;88468;-67
2022/03/18 05:49:18;;;;;;;2.43;0.60;;;21.90;45.30;;;;;;5082339;27;88457;-66
2022/03/18 05:51:46;;;;;;;1.20;0.80;;;21.80;45.20;;;;;;5060628;27;89745;-67
2022/03/18 05:54:14;;;;;;;1.70;0.70;;;21.80;45.30;;;;;;5067964;27;90060;-66
2022/03/18 05:56:54;;;;;;;1.57;0.83;;;21.80;45.30;;;;;;5078478;27;89012;-66
2022/03/18 05:59:24;;;;;;;0.60;0.60;;;21.80;45.50;;;;;;5087700;27;88841;-66
2022/03/18 06:01:53;;;;;;;0.60;0.60;;;21.70;45.40;;;;;;5103124;27;90589;-66
2022/03/18 06:04:22;;;;;;;2.27;0.70;;;21.70;45.50;;;;;;5095382;27;90075;-67
2022/03/18 06:06:50;;;;;;;1.63;1.13;;;21.70;45.60;;;;;;5083004;27;88448;-67
2022/03/18 06:12:04;;;;;;;0.50;0.50;;;21.60;45.60;;;;;;5078483;27;89579;-67
2022/03/18 06:14:33;;;;;;;2.30;0.87;;;21.60;45.70;;;;;;5089707;27;89938;-67
2022/03/18 06:17:02;;;;;;;1.27;1.17;;;21.50;45.70;;;;;;5061223;27;88387;-67
2022/03/18 06:19:31;;;;;;;0.70;0.70;;;21.50;45.80;;;;;;5082182;27;88865;-67
2022/03/18 06:21:59;;;;;;;0.67;0.60;;;21.50;45.90;;;;;;5082112;27;89862;-67
2022/03/18 06:24:28;;;;;;;1.60;0.87;;;21.50;45.90;;;;;;5081403;27;88821;-67
2022/03/18 06:26:56;;;;;;;2.27;0.83;;;21.40;45.90;;;;;;5075969;27;88518;-67
2022/03/18 06:29:24;;;;;;;0.70;0.70;;;21.40;45.90;;;;;;5078854;27;88691;-67
2022/03/18 06:31:53;;;;;;;1.07;0.90;;;21.40;46.00;;;;;;5099617;27;91200;-67
2022/03/18 06:34:22;;;;;;;0.90;0.70;;;21.40;46.00;;;;;;5059763;27;90020;-67
2022/03/18 06:36:50;;;;;;;0.50;0.50;;;21.40;46.00;;;;;;5089929;27;88475;-66
2022/03/18 06:39:19;;;;;;;1.13;0.70;;;21.30;46.00;;;;;;5081217;27;88520;-69
2022/03/18 06:41:47;;;;;;;2.03;0.77;;;21.30;46.10;;;;;;5080488;27;89704;-68
2022/03/18 06:44:15;;;;;;;1.27;0.90;;;21.30;46.10;;;;;;5070258;27;90278;-68
2022/03/18 06:46:43;;;;;;;1.20;0.80;;;21.20;46.10;;;;;;5077155;27;88678;-69
2022/03/18 06:49:13;;;;;;;7.43;1.17;;;21.20;46.20;;;;;;5073013;27;88559;-68
2022/03/18 06:51:41;;;;;;;1.43;0.83;;;21.20;46.20;;;;;;5079892;27;93776;-66
2022/03/18 06:54:09;;;;;;;1.07;0.63;;;21.20;46.30;;;;;;5074351;27;88638;-68
2022/03/18 06:56:38;;;;;;;1.10;0.90;;;21.10;46.20;;;;;;5080841;27;89000;-67
2022/03/18 06:59:06;;;;;;;1.43;1.10;;;21.20;46.20;;;;;;5080456;27;88511;-68
2022/03/18 07:01:35;;;;;;;1.70;0.90;;;21.10;46.20;;;;;;5080966;27;89602;-68
2022/03/18 07:04:03;;;;;;;2.00;1.20;;;21.10;46.10;;;;;;5080486;27;89992;-69
2022/03/18 07:06:33;;;;;;;1.53;0.90;;;21.10;46.20;;;;;;5080772;27;88770;-68
2022/03/18 07:09:01;;;;;;;1.10;1.00;;;21.10;46.10;;;;;;5083796;27;88555;-68
2022/03/18 07:11:29;;;;;;;1.50;0.90;;;21.10;46.10;;;;;;5084313;27;93443;-67
2022/03/18 07:13:57;;;;;;;0.73;0.70;;;21.10;46.70;;;;;;5084034;27;89088;-68
2022/03/18 07:19:10;;;;;;;3.40;0.80;;;21.00;46.70;;;;;;5084763;27;88498;-68
2022/03/18 07:21:40;;;;;;;2.17;1.27;;;21.00;46.00;;;;;;5084587;27;90765;-69
2022/03/18 07:24:07;;;;;;;1.47;0.90;;;21.00;46.00;;;;;;5084283;27;90407;-68
2022/03/18 07:26:35;;;;;;;3.23;1.13;;;21.00;46.00;;;;;;5084169;27;89932;-69
2022/03/18 07:29:04;;;;;;;3.13;1.30;;;21.00;46.00;;;;;;5076989;27;88497;-69
2022/03/18 07:31:32;;;;;;;3.33;1.20;;;20.90;45.90;;;;;;5062639;27;88957;-68
2022/03/18 07:34:00;;;;;;;2.33;1.30;;;20.90;45.90;;;;;;5066506;27;88804;-67
2022/03/18 07:36:28;;;;;;;1.53;1.00;;;20.90;45.90;;;;;;5078463;27;88543;-67
2022/03/18 07:38:58;;;;;;;3.13;0.60;;;20.90;45.90;;;;;;5071736;27;88470;-67
2022/03/18 07:41:26;;;;;;;1.43;0.90;;;20.90;45.90;;;;;;5084282;27;90918;-67
2022/03/18 07:43:54;;;;;;;3.33;1.30;;;20.90;46.00;;;;;;5083323;27;89128;-67
2022/03/18 07:46:22;;;;;;;2.40;1.13;;;20.80;45.90;;;;;;5065056;27;88671;-67
2022/03/18 07:48:50;;;;;;;3.07;1.10;;;20.80;45.90;;;;;;5069930;27;88591;-67
2022/03/18 07:51:18;;;;;;;1.13;0.80;;;20.80;45.90;;;;;;5072852;27;90807;-67
2022/03/18 07:53:46;;;;;;;2.40;0.90;;;20.80;46.00;;;;;;5077690;27;90265;-67
2022/03/18 07:56:15;;;;;;;1.80;0.93;;;20.80;45.90;;;;;;5067930;27;89410;-67
2022/03/18 07:58:43;;;;;;;1.03;0.80;;;20.80;46.00;;;;;;5084369;27;88376;-67
2022/03/18 08:01:11;;;;;;;1.23;0.93;;;20.80;46.00;;;;;;5082316;27;90633;-67
2022/03/18 08:03:39;;;;;;;1.13;0.90;;;20.70;46.00;;;;;;5082752;27;91441;-67
2022/03/18 08:06:07;;;;;;;1.27;1.17;;;20.70;46.00;;;;;;5072855;27;88360;-69
2022/03/18 08:08:35;;;;;;;1.40;0.90;;;20.70;46.00;;;;;;5070373;27;88322;-67
2022/03/18 08:11:03;;;;;;;1.70;1.00;;;20.70;46.10;;;;;;5067521;27;88977;-67
2022/03/18 08:13:33;;;;;;;2.93;0.90;;;20.70;46.10;;;;;;5082803;27;89113;-67
2022/03/18 08:16:01;;;;;;;2.20;1.20;;;20.70;46.20;;;;;;5083822;27;88532;-67
2022/03/18 08:18:29;;;;;;;3.40;1.00;;;20.70;46.20;;;;;;5082935;27;88450;-67
2022/03/18 08:20:57;;;;;;;3.17;1.20;;;20.70;46.20;;;;;;5082845;27;89345;-67
2022/03/18 08:23:42;;;;;;;0.80;0.80;;;20.70;46.20;;;;;;5082582;27;88515;-67
2022/03/18 08:26:10;;;;;;;3.47;0.67;;;20.70;46.20;;;;;;5063099;27;88483;-67
2022/03/18 08:28:39;;;;;;;3.87;1.37;;;20.70;46.20;;;;;;5076530;27;88809;-67
2022/03/18 08:31:08;;;;;;;4.80;1.27;;;20.70;46.30;;;;;;5078219;27;93703;-67
2022/03/18 08:33:37;;;;;;;1.77;1.20;;;20.70;46.30;;;;;;5062631;27;89444;-66
2022/03/18 08:36:05;;;;;;;1.40;1.30;;;20.70;46.30;;;;;;5077535;27;88507;-67
2022/03/18 08:38:33;;;;;;;2.50;1.10;;;20.60;46.20;;;;;;5082900;27;88342;-69
2022/03/18 08:41:01;;;;;;;1.93;1.27;;;20.60;46.20;;;;;;5080920;27;90526;-70
2022/03/18 08:43:30;;;;;;;2.60;1.23;;;20.60;46.20;;;;;;5083225;27;90356;-70
2022/03/18 08:46:00;;;;;;;2.67;1.50;;;20.60;46.90;;;;;;5083516;27;88547;-71
2022/03/18 08:48:28;;;;;;;0.90;0.73;;;20.60;46.30;;;;;;5083185;27;88182;-71
2022/03/18 08:50:56;;;;;;;2.03;1.20;;;20.60;46.30;;;;;;5078954;27;89564;-70
2022/03/18 08:53:24;;;;;;;1.93;1.53;;;20.60;46.30;;;;;;5083008;27;89381;-71
2022/03/18 08:55:54;;;;;;;2.30;0.80;;;20.60;46.90;;;;;;5082924;27;88353;-70
2022/03/18 08:58:22;;;;;;;2.87;1.33;;;20.60;46.40;;;;;;5083636;27;88475;-69
2022/03/18 09:00:50;;;;;;;1.77;0.90;;;20.60;46.30;;;;;;5082701;27;89560;-70
2022/03/18 09:03:19;;;;;;;2.73;1.10;;;20.50;46.20;;;;;;5081905;27;92134;-70
2022/03/18 09:05:48;;;;;;;2.17;1.30;;;20.50;46.30;;;;;;5062295;27;88313;-70
2022/03/18 09:08:16;;;;;;;1.57;0.97;;;20.50;46.20;;;;;;5061579;27;88725;-70
2022/03/18 09:10:44;;;;;;;4.10;1.03;;;20.50;46.30;;;;;;5061938;27;90681;-70
2022/03/18 09:13:12;;;;;;;3.20;1.00;;;20.50;46.20;;;;;;5061615;27;88863;-70
2022/03/18 09:15:40;;;;;;;2.17;1.10;;;20.50;46.20;;;;;;5061599;27;88586;-71
2022/03/18 09:18:08;;;;;;;1.60;1.10;;;20.50;46.20;;;;;;5061937;27;88507;-70
2022/03/18 09:20:38;;;;;;;1.23;1.13;;;20.50;46.20;;;;;;5072611;27;90640;-68
2022/03/18 09:23:08;;;;;;;3.20;1.33;;;20.50;46.20;;;;;;5082926;27;90007;-70
2022/03/18 09:25:37;;;;;;;3.93;1.30;;;20.50;46.20;;;;;;5081920;27;88372;-69
2022/03/18 09:28:05;;;;;;;1.37;1.10;;;20.50;46.20;;;;;;5082369;27;88393;-69
2022/03/18 09:30:50;;;;;;;2.00;1.10;;;20.50;46.20;;;;;;5063675;27;90750;-69
2022/03/18 09:33:18;;;;;;;1.03;0.90;;;20.50;46.20;;;;;;5060540;27;88892;-69
2022/03/18 09:35:47;;;;;;;1.93;0.97;;;20.40;46.10;;;;;;5063544;27;88539;-69
2022/03/18 09:38:15;;;;;;;1.10;0.77;;;20.40;46.10;;;;;;5082055;27;88593;-69
2022/03/18 09:40:43;;;;;;;1.53;1.07;;;20.40;46.00;;;;;;5082352;27;90136;-69
2022/03/18 09:43:35;;;;;;;1.30;0.80;;;20.40;46.00;;;;;;5081355;27;88683;-71
2022/03/18 09:46:03;;;;;;;1.37;0.80;;;20.40;46.00;;;;;;5081815;27;88375;-70
2022/03/18 09:48:52;;;;;;;4.63;0.90;;;20.40;46.00;;;;;;5082434;27;88643;-71
2022/03/18 09:51:21;;;;;;;2.50;0.87;;;20.40;45.90;;;;;;5080778;27;91028;-69
2022/03/18 09:54:10;;;;;;;2.47;1.00;;;20.40;45.90;;;;;;5064363;27;90462;-70
2022/03/18 09:56:39;;;;;;;2.10;1.40;;;20.40;45.90;;;;;;5082418;27;88325;-70
2022/03/18 09:59:07;;;;;;;0.67;0.60;;;20.40;45.90;;;;;;5081753;27;88485;-70
2022/03/18 10:01:35;;;;;;;2.13;0.87;;;20.40;45.90;;;;;;5081560;27;89555;-70
2022/03/18 10:04:04;;;;;;;2.17;1.07;;;20.40;45.90;;;;;;5082000;27;93111;-70
2022/03/18 10:06:34;;;;;;;1.67;0.90;;;20.50;45.90;;;;;;5082140;27;88296;-70
2022/03/18 10:09:02;;;;;;;1.60;0.90;;;20.40;45.80;;;;;;5080070;27;90658;-71
2022/03/18 10:11:31;;;;;;;1.73;0.93;;;20.50;45.80;;;;;;5082113;27;90562;-70
2022/03/18 10:14:01;;;;;;;1.50;1.07;;;20.50;45.80;;;;;;5081317;27;89045;-71
2022/03/18 10:16:33;;;;;;;1.63;1.00;;;20.40;45.70;;;;;;5081839;27;88343;-70
2022/03/18 10:19:01;;;;;;;1.63;1.10;;;20.40;45.70;;;;;;5081801;27;88512;-70
2022/03/18 10:21:29;;;;;;;0.80;0.77;;;20.50;45.70;;;;;;5081635;27;90724;-70
2022/03/18 10:24:08;;;;;;;1.00;0.83;;;20.40;45.70;;;;;;5078749;27;88903;-71
2022/03/18 10:26:37;;;;;;;1.93;1.37;;;20.40;45.70;;;;;;5080719;27;88487;-71
2022/03/18 10:29:05;;;;;;;1.53;1.30;;;20.40;45.60;;;;;;5082186;27;88393;-71
2022/03/18 10:31:33;;;;;;;3.50;0.80;;;20.50;45.70;;;;;;5080814;27;89745;-70
2022/03/18 10:37:08;;;;;;;1.33;0.97;;;20.50;45.60;;;;;;5082125;27;88419;-71
2022/03/18 10:39:39;;;;;;;1.27;0.87;;;20.50;45.60;;;;;;5080373;27;88230;-70
2022/03/18 10:42:12;;;;;;;0.87;0.80;;;20.40;45.50;;;;;;5060260;27;90797;-70
2022/03/18 10:44:48;;;;;;;1.13;1.03;;;20.40;45.50;;;;;;5060974;27;88990;-70
2022/03/18 10:47:29;;;;;;;1.70;0.80;;;20.40;45.50;;;;;;5060236;27;88430;-71
2022/03/18 10:50:16;;;;;;;1.63;1.17;;;20.40;45.50;;;;;;5078305;27;88497;-71
2022/03/18 10:53:12;;;;;;;0.70;0.70;;;20.40;45.50;;;;;;5080676;27;93083;-70
2022/03/18 10:55:43;;;;;;;1.83;1.23;;;20.40;45.40;;;;;;5034052;27;88647;-70
2022/03/18 10:58:12;;;;;;;3.77;1.13;;;20.50;45.40;;;;;;5081620;27;88361;-70
2022/03/18 11:00:42;;;;;;;1.90;0.60;;;20.50;45.40;;;;;;5081305;27;88591;-70
2022/03/18 11:03:11;;;;;;;2.57;0.80;;;20.50;45.40;;;;;;5065352;27;91769;-70
2022/03/18 11:05:41;;;;;;;1.90;0.93;;;20.50;45.40;;;;;;5059814;27;88964;-70
2022/03/18 11:08:11;;;;;;;2.17;1.27;;;20.50;45.40;;;;;;5060755;27;89006;-70
2022/03/18 11:13:29;;;;;;;1.97;0.90;;;20.40;45.20;;;;;;5060001;27;88610;-70
2022/03/18 11:15:57;;;;;;;2.37;1.10;;;20.50;45.30;;;;;;5059357;27;88923;-70
2022/03/18 11:18:29;;;;;;;1.50;0.60;;;20.50;45.30;;;;;;5061210;27;88483;-71
2022/03/18 11:20:57;;;;;;;1.33;0.70;;;20.50;45.30;;;;;;5060748;27;88443;-70
2022/03/18 11:23:25;;;;;;;1.93;0.87;;;20.50;45.20;;;;;;5060064;27;89673;-70
2022/03/18 11:26:00;;;;;;;1.30;0.80;;;20.50;45.20;;;;;;5070407;27;88730;-66
2022/03/18 11:28:29;;;;;;;1.47;0.83;;;20.50;45.20;;;;;;5081036;27;88422;-66
2022/03/18 11:31:04;;;;;;;0.80;0.80;;;20.50;45.20;;;;;;5080299;27;88163;-66
2022/03/18 11:33:33;;;;;;;1.30;1.07;;;20.60;45.20;;;;;;5080481;27;90165;-67
2022/03/18 11:36:18;;;;;;;1.17;0.70;;;20.60;45.20;;;;;;5080142;27;89429;-67
2022/03/18 11:38:57;;;;;;;1.57;1.00;;;20.50;45.10;;;;;;5063854;27;88483;-67
2022/03/18 11:41:27;;;;;;;1.47;1.20;;;20.60;45.20;;;;;;5060087;27;88498;-66
2022/03/18 11:43:56;;;;;;;2.63;1.40;;;20.60;45.10;;;;;;5059128;27;89821;-66
2022/03/18 11:46:27;;;;;;;1.40;0.90;;;20.60;45.10;;;;;;5073132;27;88392;-66
2022/03/18 11:48:57;;;;;;;2.07;1.40;;;20.60;45.10;;;;;;5080784;27;88343;-67
2022/03/18 11:51:30;;;;;;;2.10;1.20;;;20.60;45.10;;;;;;5080307;27;88805;-66
2022/03/18 11:53:59;;;;;;;2.03;0.97;;;20.50;45.00;;;;;;5080248;27;92488;-66
2022/03/18 11:56:45;;;;;;;2.17;1.40;;;20.60;45.10;;;;;;5082729;27;89172;-67
2022/03/18 11:59:38;;;;;;;2.90;1.00;;;20.50;45.10;;;;;;5075726;27;89264;-67
2022/03/18 12:02:07;;;;;;;2.00;1.20;;;20.60;45.10;;;;;;5063224;27;88641;-67
2022/03/18 12:04:43;;;;;;;2.90;1.27;;;20.60;45.10;;;;;;5063073;27;89128;-67
2022/03/18 12:07:23;;;;;;;1.20;0.70;;;20.60;45.10;;;;;;5063418;27;89756;-67
2022/03/18 12:09:52;;;;;;;2.23;1.17;;;20.60;45.10;;;;;;5063864;27;88554;-67
2022/03/18 12:12:22;;;;;;;1.27;1.00;;;20.60;45.10;;;;;;5067023;27;88433;-67
2022/03/18 12:14:51;;;;;;;3.90;1.20;;;20.60;45.10;;;;;;5083243;27;90972;-67
2022/03/18 12:17:19;;;;;;;1.47;1.20;;;20.60;45.10;;;;;;5083371;27;88759;-67
2022/03/18 12:19:52;;;;;;;0.97;0.87;;;20.60;45.10;;;;;;5083528;27;88595;-66
2022/03/18 12:22:20;;;;;;;0.93;0.60;;;20.60;45.10;;;;;;5083940;27;88527;-67
2022/03/18 12:24:49;;;;;;;2.70;1.23;;;20.70;45.20;;;;;;5083671;27;88939;-67
2022/03/18 12:27:18;;;;;;;2.77;1.00;;;20.70;45.20;;;;;;5067513;27;89817;-67
2022/03/18 12:29:48;;;;;;;2.27;1.10;;;20.70;45.20;;;;;;5063373;27;88326;-67
2022/03/18 12:32:17;;;;;;;2.13;1.33;;;20.70;45.10;;;;;;5067250;27;88558;-67
2022/03/18 12:34:48;;;;;;;2.47;1.00;;;20.70;45.10;;;;;;5083303;27;90680;-67
2022/03/18 12:37:20;;;;;;;2.37;1.10;;;20.80;45.20;;;;;;5083226;27;88908;-66
2022/03/18 12:39:49;;;;;;;2.73;1.20;;;20.80;45.20;;;;;;5076832;27;88486;-67
2022/03/18 12:42:18;;;;;;;1.37;1.10;;;20.80;45.20;;;;;;5062571;27;88688;-67
2022/03/18 12:44:46;;;;;;;1.60;1.20;;;20.80;45.10;;;;;;5062843;27;92469;-67
2022/03/18 12:47:16;;;;;;;3.70;1.33;;;20.80;45.80;;;;;;5062181;27;88786;-66
2022/03/18 12:49:45;;;;;;;1.27;1.00;;;20.80;45.10;;;;;;5063183;27;88253;-67
2022/03/18 12:52:14;;;;;;;3.03;1.13;;;20.90;45.20;;;;;;5068872;27;88545;-67
2022/03/18 12:55:03;;;;;;;1.17;0.90;;;20.90;45.20;;;;;;5082608;27;89609;-67
2022/03/18 12:57:33;;;;;;;1.13;0.87;;;20.90;45.30;;;;;;5083314;27;88723;-67
2022/03/18 13:00:01;;;;;;;1.43;1.10;;;20.90;45.20;;;;;;5083502;27;88531;-66
2022/03/18 13:02:51;;;;;;;1.50;1.30;;;20.90;45.20;;;;;;5083312;27;88584;-67
2022/03/18 13:05:19;;;;;;;2.17;1.10;;;20.90;45.20;;;;;;5081055;27;90080;-67
2022/03/18 13:07:50;;;;;;;2.03;0.90;;;20.90;45.20;;;;;;5062549;27;88789;-66
2022/03/18 13:10:21;;;;;;;1.47;0.97;;;20.90;45.20;;;;;;5063131;27;88364;-66
2022/03/18 13:12:49;;;;;;;1.17;0.73;;;21.00;45.30;;;;;;5076108;27;90110;-67
2022/03/18 13:15:18;;;;;;;1.53;0.80;;;21.00;45.20;;;;;;5082665;27;90890;-67
2022/03/18 13:17:47;;;;;;;2.13;1.30;;;21.00;45.20;;;;;;5082152;27;89115;-67
2022/03/18 13:20:26;;;;;;;1.93;1.00;;;21.00;45.20;;;;;;5069362;27;88264;-67